Time;durP1;ratioP1;P1;durP2;ratioP2;P2;SDS_P1;SDS_P2;PMS_P1;PMS_P2;Temp;Humidity;BMP_temperature;BMP_pressure;BME280_temperature;BME280_humidity;BME280_pressure;Samples;Min_cycle;Max_cycle;Signal;HPM_P1;HPM_P2
2022/08/17 00:00:29;;;;;;;26.23;22.38;;;21.00;99.90;;;;;;5016658;28;38233;-83
2022/08/17 00:03:07;;;;;;;28.80;25.80;;;21.10;99.90;;;;;;5012294;28;39184;-84
2022/08/17 00:05:40;;;;;;;28.55;25.52;;;21.10;99.90;;;;;;5069855;27;48750;-87
2022/08/17 00:08:07;;;;;;;28.30;25.40;;;21.20;99.90;;;;;;5051533;28;40656;-86
2022/08/17 00:10:37;;;;;;;28.55;25.67;;;21.20;99.90;;;;;;5037105;28;39577;-85
2022/08/17 00:13:37;;;;;;;28.40;25.50;;;21.20;99.90;;;;;;5018164;28;38070;-85
2022/08/17 00:16:10;;;;;;;29.10;26.05;;;21.20;99.90;;;;;;5022782;28;36100;-85
2022/08/17 00:18:37;;;;;;;33.28;29.73;;;21.30;99.90;;;;;;5025376;28;38297;-84
2022/08/17 00:21:06;;;;;;;29.30;26.15;;;21.30;99.90;;;;;;5040781;28;37287;-84
2022/08/17 00:23:32;;;;;;;32.58;28.33;;;21.40;99.90;;;;;;5036003;28;37041;-85
2022/08/17 00:25:58;;;;;;;28.83;26.00;;;21.40;99.90;;;;;;5039132;28;37612;-86
2022/08/17 00:28:24;;;;;;;32.85;29.35;;;21.40;99.90;;;;;;5034856;28;37681;-86
2022/08/17 00:30:51;;;;;;;29.15;26.15;;;21.40;99.90;;;;;;5040297;28;38411;-86
2022/08/17 00:33:29;;;;;;;31.13;27.67;;;21.40;99.90;;;;;;5043034;28;36740;-85
2022/08/17 00:36:00;;;;;;;28.30;25.33;;;21.40;99.90;;;;;;5036683;28;37140;-85
2022/08/17 00:38:28;;;;;;;31.13;28.05;;;21.40;99.90;;;;;;5042203;28;36927;-85
2022/08/17 00:41:07;;;;;;;31.75;28.30;;;21.40;99.90;;;;;;5038558;28;37173;-84
2022/08/17 00:43:36;;;;;;;34.55;30.80;;;21.30;99.90;;;;;;5053163;27;47509;-85
2022/08/17 00:46:08;;;;;;;36.42;30.67;;;21.30;99.90;;;;;;5030457;28;36322;-85
2022/08/17 00:48:34;;;;;;;38.13;34.10;;;21.30;99.90;;;;;;5032571;28;38984;-85
2022/08/17 00:51:25;;;;;;;37.53;30.50;;;21.30;99.90;;;;;;5036059;27;39809;-85
2022/08/17 00:54:08;;;;;;;35.33;30.95;;;21.40;99.90;;;;;;5015431;28;45986;-86
2022/08/17 00:56:36;;;;;;;;;;;21.40;99.90;;;;;;5070442;28;47232;-88
2022/08/17 00:59:05;;;;;;;34.28;30.33;;;21.40;99.90;;;;;;5037377;28;39918;-86
2022/08/17 01:01:32;;;;;;;36.45;31.17;;;21.40;99.90;;;;;;5037768;28;39145;-84
2022/08/17 01:04:00;;;;;;;32.90;28.65;;;21.40;99.90;;;;;;5056482;27;38825;-87
2022/08/17 01:06:27;;;;;;;28.67;25.83;;;21.40;99.90;;;;;;5070903;28;37834;-86
2022/08/17 01:08:54;;;;;;;33.00;29.55;;;21.40;99.90;;;;;;5040526;28;38702;-86
2022/08/17 01:11:24;;;;;;;30.05;27.05;;;21.40;99.90;;;;;;5034497;28;38938;-85
2022/08/17 01:13:51;;;;;;;36.38;32.70;;;21.50;99.90;;;;;;5036184;28;38886;-85
2022/08/17 01:16:19;;;;;;;47.08;39.58;;;21.50;99.90;;;;;;5036337;28;37665;-86
2022/08/17 01:18:48;;;;;;;47.10;42.00;;;21.60;99.90;;;;;;5034561;28;38904;-84
2022/08/17 01:21:30;;;;;;;47.67;41.63;;;21.60;99.90;;;;;;5041698;28;39524;-84
2022/08/17 01:23:56;;;;;;;47.60;42.58;;;21.60;99.90;;;;;;5042061;28;36817;-85
2022/08/17 01:26:23;;;;;;;49.38;44.13;;;21.70;99.90;;;;;;5039154;28;37636;-87
2022/08/17 01:28:53;;;;;;;49.70;44.47;;;21.80;99.90;;;;;;5072625;28;39643;-86
2022/08/17 01:31:19;;;;;;;45.63;40.65;;;21.90;99.90;;;;;;5046218;28;38385;-86
2022/08/17 01:33:48;;;;;;;45.67;40.88;;;21.80;99.90;;;;;;5044771;28;38840;-88
2022/08/17 01:36:14;;;;;;;40.58;35.13;;;21.70;99.90;;;;;;5045917;27;37759;-87
2022/08/17 01:38:40;;;;;;;48.42;38.58;;;21.60;99.90;;;;;;5053545;28;37851;-84
2022/08/17 01:41:14;;;;;;;47.13;35.83;;;21.50;99.90;;;;;;5037609;28;39551;-87
2022/08/17 01:43:49;;;;;;;46.70;32.30;;;21.40;99.90;;;;;;5033574;28;38253;-85
2022/08/17 01:46:22;;;;;;;41.10;31.08;;;21.30;99.90;;;;;;5063460;28;39003;-88
2022/08/17 01:48:50;;;;;;;37.30;31.13;;;21.20;99.90;;;;;;5036584;28;39259;-85
2022/08/17 01:51:17;;;;;;;31.58;26.67;;;21.20;99.90;;;;;;5031840;28;39012;-87
2022/08/17 01:53:49;;;;;;;30.05;25.50;;;21.10;99.90;;;;;;5067668;28;38487;-86
2022/08/17 01:56:21;;;;;;;24.95;21.48;;;21.10;99.90;;;;;;5066056;28;38780;-85
2022/08/17 01:58:47;;;;;;;31.27;27.52;;;21.10;99.90;;;;;;5048098;28;39118;-86
2022/08/17 02:01:16;;;;;;;27.08;23.05;;;21.10;99.90;;;;;;5040260;28;37170;-88
2022/08/17 02:03:45;;;;;;;24.33;19.55;;;21.10;99.90;;;;;;5044785;28;36994;-88
2022/08/17 02:06:11;;;;;;;18.52;14.73;;;21.00;99.90;;;;;;5038879;28;37701;-87
2022/08/17 02:08:37;;;;;;;20.08;17.50;;;20.90;99.90;;;;;;5042021;28;37766;-83
2022/08/17 02:11:09;;;;;;;23.00;17.55;;;20.80;99.90;;;;;;5040337;28;37459;-88
2022/08/17 02:13:42;;;;;;;21.98;16.38;;;20.70;99.90;;;;;;5042843;27;38627;-86
2022/08/17 02:16:08;;;;;;;17.08;13.57;;;20.50;99.90;;;;;;5041835;28;37574;-87
2022/08/17 02:18:34;;;;;;;16.73;15.00;;;20.40;99.90;;;;;;5058583;28;37633;-87
2022/08/17 02:21:01;;;;;;;16.13;14.00;;;20.30;99.90;;;;;;5065645;28;40547;-88
2022/08/17 02:23:30;;;;;;;17.05;14.52;;;20.40;99.90;;;;;;5044044;28;48787;-86
2022/08/17 02:25:58;;;;;;;18.60;16.70;;;20.30;99.90;;;;;;5045475;28;37432;-82
2022/08/17 02:28:24;;;;;;;18.23;16.52;;;20.30;99.90;;;;;;5045042;27;39033;-84
2022/08/17 02:30:51;;;;;;;20.92;18.88;;;20.30;99.90;;;;;;5072401;28;37403;-85
2022/08/17 02:33:17;;;;;;;22.20;20.10;;;20.30;99.90;;;;;;5037768;28;37189;-79
2022/08/17 02:35:43;;;;;;;19.10;17.20;;;20.30;99.90;;;;;;5043481;28;37671;-88
2022/08/17 02:38:09;;;;;;;22.38;20.23;;;20.20;99.90;;;;;;5040947;28;38020;-81
2022/08/17 02:40:36;;;;;;;23.92;21.33;;;20.10;99.90;;;;;;5070344;28;40253;-85
2022/08/17 02:43:03;;;;;;;21.15;18.83;;;20.10;99.90;;;;;;5044803;28;38973;-85
2022/08/17 02:45:29;;;;;;;23.63;21.30;;;20.10;99.90;;;;;;5041799;28;37798;-86
2022/08/17 02:47:55;;;;;;;23.65;21.33;;;20.00;99.90;;;;;;5043170;28;38585;-86
2022/08/17 02:50:23;;;;;;;23.75;21.35;;;20.10;99.90;;;;;;5046646;27;38786;-86
2022/08/17 02:52:50;;;;;;;22.60;20.38;;;20.10;99.90;;;;;;5040835;28;38820;-86
2022/08/17 02:55:23;;;;;;;27.02;24.27;;;20.00;99.90;;;;;;5057504;28;37894;-84
2022/08/17 02:57:50;;;;;;;26.17;23.67;;;20.00;99.90;;;;;;5044776;28;37758;-86
2022/08/17 03:00:24;;;;;;;27.10;23.95;;;20.00;99.90;;;;;;5072933;28;40035;-86
2022/08/17 03:02:50;;;;;;;28.60;25.58;;;19.90;99.90;;;;;;5043235;28;37841;-85
2022/08/17 03:05:20;;;;;;;25.35;22.73;;;19.80;99.90;;;;;;5039588;28;37445;-84
2022/08/17 03:07:46;;;;;;;26.00;23.40;;;19.80;99.90;;;;;;5041979;27;39513;-83
2022/08/17 03:10:13;;;;;;;25.25;22.65;;;19.90;99.90;;;;;;5073621;28;36865;-84
2022/08/17 03:12:41;;;;;;;31.40;27.55;;;19.80;99.90;;;;;;5048168;28;38554;-83
2022/08/17 03:15:11;;;;;;;29.65;25.70;;;19.80;99.90;;;;;;5051077;28;36403;-82
2022/08/17 03:17:37;;;;;;;26.73;23.30;;;19.80;99.90;;;;;;5041866;28;38358;-84
2022/08/17 03:20:06;;;;;;;34.92;27.75;;;19.70;99.90;;;;;;5044519;28;39369;-82
2022/08/17 03:22:39;;;;;;;30.38;21.48;;;19.80;99.90;;;;;;5039085;28;48845;-87
2022/08/17 03:25:08;;;;;;;23.92;20.13;;;19.70;99.90;;;;;;5052704;28;38361;-85
2022/08/17 03:27:35;;;;;;;28.73;21.70;;;19.70;99.90;;;;;;5039970;28;39483;-84
2022/08/17 03:30:02;;;;;;;25.30;20.45;;;19.80;99.90;;;;;;5039841;28;39598;-81
2022/08/17 03:32:29;;;;;;;26.38;19.05;;;19.80;99.90;;;;;;5039274;28;37809;-86
2022/08/17 03:34:59;;;;;;;21.65;17.50;;;19.80;99.90;;;;;;5040443;28;36380;-83
2022/08/17 03:37:25;;;;;;;17.92;15.10;;;19.70;99.90;;;;;;5039194;28;39841;-81
2022/08/17 03:39:53;;;;;;;19.10;14.98;;;19.70;99.90;;;;;;5039334;27;38891;-79
2022/08/17 03:42:23;;;;;;;19.95;14.15;;;19.70;99.90;;;;;;5041509;28;37975;-84
2022/08/17 03:44:53;;;;;;;16.80;12.60;;;19.80;99.90;;;;;;5042497;27;38736;-84
2022/08/17 03:58:22;;;;;;;14.55;10.93;;;19.90;99.90;;;;;;5041304;28;38981;-85
2022/08/17 04:00:49;;;;;;;13.50;9.82;;;19.90;99.90;;;;;;5044734;28;37078;-85
2022/08/17 04:03:16;;;;;;;12.43;10.13;;;20.00;99.90;;;;;;5037730;28;39138;-80
2022/08/17 04:05:43;;;;;;;13.68;11.35;;;20.00;99.90;;;;;;5043374;28;40351;-84
2022/08/17 04:08:09;;;;;;;12.75;10.65;;;20.00;99.90;;;;;;5041543;28;39725;-86
2022/08/17 04:13:16;;;;;;;12.65;10.77;;;19.80;99.90;;;;;;5071114;27;20463;-75
2022/08/17 04:15:42;;;;;;;14.45;13.05;;;19.70;99.90;;;;;;5072065;27;37959;-75
2022/08/17 04:18:08;;;;;;;17.63;15.73;;;19.70;99.90;;;;;;5073342;27;36205;-75
2022/08/17 04:20:35;;;;;;;19.40;17.00;;;19.60;99.90;;;;;;5080638;27;38650;-75
2022/08/17 04:23:08;;;;;;;22.08;19.73;;;19.50;99.90;;;;;;5077432;27;38492;-75
2022/08/17 04:25:38;;;;;;;22.80;20.23;;;19.50;99.90;;;;;;5073716;27;48926;-75
2022/08/17 04:28:05;;;;;;;24.02;21.25;;;19.50;99.90;;;;;;5073029;27;37919;-75
2022/08/17 04:30:33;;;;;;;26.63;23.85;;;19.50;99.90;;;;;;5073376;27;38442;-76
2022/08/17 04:33:07;;;;;;;25.42;22.60;;;19.40;99.90;;;;;;5077262;27;39096;-76
2022/08/17 04:35:55;;;;;;;27.63;24.73;;;19.40;99.90;;;;;;5073795;28;48380;-76
2022/08/17 04:38:24;;;;;;;28.45;23.70;;;19.40;99.90;;;;;;5074790;27;37071;-76
2022/08/17 04:43:38;;;;;;;26.75;23.95;;;19.30;99.90;;;;;;5075424;27;50191;-75
2022/08/17 04:46:11;;;;;;;27.40;23.23;;;19.20;99.90;;;;;;5066104;27;37174;-75
2022/08/17 04:48:41;;;;;;;26.55;23.95;;;19.20;99.90;;;;;;5072123;27;37127;-76
2022/08/17 04:51:31;;;;;;;27.08;24.15;;;19.20;99.90;;;;;;5071324;27;38419;-75
2022/08/17 04:54:00;;;;;;;25.63;22.95;;;19.20;99.90;;;;;;5074917;27;38417;-75
2022/08/17 04:56:28;;;;;;;26.60;23.67;;;19.20;99.90;;;;;;5068110;28;38317;-75
2022/08/17 04:58:57;;;;;;;23.95;20.98;;;19.20;99.90;;;;;;5068981;28;37671;-75
2022/08/17 05:01:26;;;;;;;29.13;22.88;;;19.20;99.90;;;;;;5065512;28;38625;-76
2022/08/17 05:03:55;;;;;;;27.15;24.30;;;19.20;99.90;;;;;;5063684;28;38407;-75
2022/08/17 05:06:21;;;;;;;23.15;20.70;;;19.20;99.90;;;;;;5063994;27;39328;-75
2022/08/17 05:08:47;;;;;;;27.77;24.98;;;19.20;99.90;;;;;;5064002;28;37434;-75
2022/08/17 05:11:13;;;;;;;26.23;22.02;;;19.20;99.90;;;;;;5064740;27;39602;-76
2022/08/17 05:13:40;;;;;;;31.90;26.25;;;19.20;99.90;;;;;;5061822;27;37748;-75
2022/08/17 05:16:07;;;;;;;25.52;22.88;;;19.20;99.90;;;;;;5074361;27;37851;-75
2022/08/17 05:18:34;;;;;;;28.60;25.05;;;19.20;99.90;;;;;;5070818;27;37711;-75
2022/08/17 05:21:01;;;;;;;28.15;25.15;;;19.20;99.90;;;;;;5071790;28;36387;-75
2022/08/17 05:23:28;;;;;;;31.98;28.48;;;19.20;99.90;;;;;;5064502;27;48288;-75
2022/08/17 05:25:55;;;;;;;30.42;27.27;;;19.20;99.90;;;;;;5056085;28;38550;-75
2022/08/17 05:28:22;;;;;;;28.77;25.88;;;19.30;99.90;;;;;;5053041;27;36282;-75
2022/08/17 05:30:49;;;;;;;34.72;30.30;;;19.20;99.90;;;;;;5057575;28;39507;-75
2022/08/17 05:33:21;;;;;;;27.92;25.02;;;19.30;99.90;;;;;;5055904;28;38474;-74
2022/08/17 05:35:50;;;;;;;27.50;24.45;;;19.30;99.90;;;;;;5055312;28;36759;-75
2022/08/17 05:38:18;;;;;;;32.75;29.10;;;19.30;99.90;;;;;;5065526;28;38122;-75
2022/08/17 05:40:45;;;;;;;36.35;30.60;;;19.30;99.90;;;;;;5056858;27;39757;-75
2022/08/17 05:43:15;;;;;;;36.60;32.67;;;19.30;99.90;;;;;;5055416;28;38819;-76
2022/08/17 05:45:58;;;;;;;31.75;28.45;;;19.40;99.90;;;;;;5055861;28;37907;-75
2022/08/17 05:48:24;;;;;;;30.65;27.50;;;19.40;99.90;;;;;;5060563;27;36589;-75
2022/08/17 05:51:20;;;;;;;47.90;35.10;;;19.40;99.90;;;;;;5057511;27;38790;-76
2022/08/17 05:54:08;;;;;;;31.60;28.20;;;19.40;99.90;;;;;;5054024;27;48229;-75
2022/08/17 05:56:53;;;;;;;33.95;29.33;;;19.40;99.90;;;;;;5054198;28;47594;-75
2022/08/17 05:59:57;;;;;;;33.80;29.88;;;19.40;99.90;;;;;;5056891;28;39511;-76
2022/08/17 06:02:42;;;;;;;31.90;27.52;;;19.40;99.90;;;;;;5054512;28;38256;-75
2022/08/17 06:05:40;;;;;;;40.17;34.50;;;19.40;99.90;;;;;;5057491;28;36162;-76
2022/08/17 06:08:46;;;;;;;37.70;33.85;;;19.40;99.90;;;;;;5031634;28;40504;-75
2022/08/17 06:11:30;;;;;;;39.03;34.80;;;19.40;99.90;;;;;;5056056;28;38062;-76
2022/08/17 06:14:14;;;;;;;37.55;33.63;;;19.40;99.90;;;;;;5058149;28;39513;-75
2022/08/17 06:16:46;;;;;;;40.95;36.10;;;19.40;99.90;;;;;;5056592;28;48736;-75
2022/08/17 06:19:24;;;;;;;40.60;36.03;;;19.30;99.90;;;;;;5056841;28;39261;-75
2022/08/17 06:21:53;;;;;;;35.88;32.13;;;19.40;99.90;;;;;;5057401;28;37762;-75
2022/08/17 06:24:22;;;;;;;36.80;33.08;;;19.40;99.90;;;;;;5057297;28;38710;-76
2022/08/17 06:26:51;;;;;;;34.25;30.63;;;19.40;99.90;;;;;;5055006;28;39655;-75
2022/08/17 06:29:34;;;;;;;36.95;32.88;;;19.50;99.90;;;;;;5060913;28;37322;-76
2022/08/17 06:32:01;;;;;;;27.13;24.58;;;19.40;99.90;;;;;;5055879;28;38000;-76
2022/08/17 06:34:28;;;;;;;32.10;28.70;;;19.40;99.90;;;;;;5055745;28;48880;-75
2022/08/17 06:37:26;;;;;;;33.67;30.17;;;19.50;99.90;;;;;;5032205;28;39409;-76
2022/08/17 06:40:31;;;;;;;34.22;30.38;;;19.50;99.90;;;;;;5047887;28;46954;-76
2022/08/17 06:43:00;;;;;;;33.97;29.67;;;19.50;99.90;;;;;;5007649;28;48098;-75
2022/08/17 06:45:33;;;;;;;26.15;23.15;;;19.50;99.90;;;;;;5040361;27;38948;-75
2022/08/17 06:48:23;;;;;;;29.27;25.00;;;19.40;99.90;;;;;;5049425;27;39143;-76
2022/08/17 06:51:14;;;;;;;27.35;24.45;;;19.40;99.90;;;;;;5046992;27;49092;-75
2022/08/17 06:54:05;;;;;;;28.98;24.60;;;19.40;99.90;;;;;;5041874;28;47330;-75
2022/08/17 06:56:41;;;;;;;33.55;26.15;;;19.30;99.90;;;;;;5042167;28;47290;-76
2022/08/17 06:59:13;;;;;;;36.63;31.88;;;19.30;99.90;;;;;;5043971;27;39076;-75
2022/08/17 07:01:41;;;;;;;37.88;31.08;;;19.30;99.90;;;;;;5043944;28;39501;-75
2022/08/17 07:04:12;;;;;;;27.17;24.33;;;19.20;99.90;;;;;;5044482;27;38996;-76
2022/08/17 07:06:41;;;;;;;29.10;25.10;;;19.20;99.90;;;;;;5039608;28;39770;-75
2022/08/17 07:09:36;;;;;;;34.45;30.65;;;19.20;99.90;;;;;;5040112;27;39072;-76
2022/08/17 07:12:14;;;;;;;31.45;28.35;;;19.20;99.90;;;;;;5042578;27;37818;-75
2022/08/17 07:15:07;;;;;;;33.45;30.13;;;19.20;99.90;;;;;;5049135;27;37172;-75
2022/08/17 07:17:33;;;;;;;31.13;27.60;;;19.30;99.90;;;;;;5048239;28;47628;-75
2022/08/17 07:20:13;;;;;;;35.55;31.77;;;19.30;99.90;;;;;;5047139;28;37756;-75
2022/08/17 07:22:49;;;;;;;31.80;28.33;;;19.30;99.90;;;;;;5049857;28;47033;-75
2022/08/17 07:25:18;;;;;;;37.25;32.50;;;19.40;99.90;;;;;;5046636;27;38721;-76
2022/08/17 07:27:51;;;;;;;35.20;31.45;;;19.40;99.90;;;;;;5039480;27;39919;-74
2022/08/17 07:30:37;;;;;;;36.92;32.63;;;19.40;99.90;;;;;;5045277;28;36886;-75
2022/08/17 07:33:18;;;;;;;35.28;30.15;;;19.40;99.90;;;;;;5038062;28;36474;-74
2022/08/17 07:35:47;;;;;;;33.67;30.08;;;19.40;99.90;;;;;;5045830;27;37843;-75
2022/08/17 07:38:31;;;;;;;32.13;27.77;;;19.40;99.90;;;;;;5038795;27;37842;-75
2022/08/17 07:41:00;;;;;;;38.72;33.08;;;19.50;99.90;;;;;;5041381;28;38620;-74
2022/08/17 07:43:34;;;;;;;31.20;28.02;;;19.50;99.90;;;;;;5041031;28;37785;-74
2022/08/17 07:49:07;;;;;;;30.27;27.08;;;19.50;99.90;;;;;;5050356;27;48959;-75
2022/08/17 07:51:44;;;;;;;40.15;34.35;;;19.40;99.90;;;;;;5048860;28;39153;-75
2022/08/17 07:54:27;;;;;;;31.98;28.80;;;19.50;99.90;;;;;;5047163;27;37499;-75
2022/08/17 07:57:14;;;;;;;31.05;27.95;;;19.70;99.90;;;;;;5050745;27;37411;-75
2022/08/17 07:59:59;;;;;;;31.58;26.75;;;19.70;99.90;;;;;;5029621;28;48067;-75
2022/08/17 08:02:26;;;;;;;28.80;25.80;;;19.70;99.90;;;;;;5032161;27;38444;-75
2022/08/17 08:05:03;;;;;;;32.45;28.98;;;19.80;99.90;;;;;;5033644;28;38670;-76
2022/08/17 08:07:36;;;;;;;38.35;33.78;;;19.80;99.90;;;;;;5048602;28;47378;-75
2022/08/17 08:10:10;;;;;;;29.58;26.67;;;19.70;99.90;;;;;;5047668;28;38949;-75
2022/08/17 08:12:47;;;;;;;30.45;27.25;;;19.70;99.90;;;;;;5024412;28;49673;-75
2022/08/17 08:15:17;;;;;;;32.63;28.75;;;19.70;99.90;;;;;;5026047;27;37197;-77
2022/08/17 08:17:55;;;;;;;37.60;31.15;;;19.70;99.90;;;;;;5032850;28;37046;-77
2022/08/17 08:20:32;;;;;;;32.70;29.48;;;19.60;99.90;;;;;;5035293;27;40064;-75
2022/08/17 08:23:17;;;;;;;32.50;29.00;;;19.60;99.90;;;;;;5028892;27;37872;-75
2022/08/17 08:25:58;;;;;;;33.92;30.50;;;19.50;99.90;;;;;;5042549;28;47265;-75
2022/08/17 08:28:36;;;;;;;35.55;32.00;;;19.60;99.90;;;;;;5051636;28;39053;-75
2022/08/17 08:31:34;;;;;;;33.17;29.40;;;19.60;99.90;;;;;;5051638;27;38484;-75
2022/08/17 08:34:12;;;;;;;32.08;28.77;;;19.70;99.90;;;;;;5050649;28;38389;-75
2022/08/17 08:37:07;;;;;;;31.27;28.17;;;19.70;99.90;;;;;;5048611;27;48660;-76
2022/08/17 08:39:50;;;;;;;34.92;31.40;;;19.80;99.90;;;;;;5046622;28;49919;-76
2022/08/17 08:42:42;;;;;;;37.10;33.10;;;19.90;99.90;;;;;;5050043;27;38642;-76
2022/08/17 08:45:14;;;;;;;32.53;29.02;;;20.00;99.90;;;;;;5063658;28;38923;-76
2022/08/17 08:47:47;;;;;;;33.17;29.85;;;20.00;99.90;;;;;;5053329;28;38711;-76
2022/08/17 08:50:30;;;;;;;33.65;30.35;;;20.10;99.90;;;;;;5046875;28;37010;-77
2022/08/17 08:53:08;;;;;;;36.72;32.78;;;20.20;99.90;;;;;;5050817;28;37883;-76
2022/08/17 08:55:54;;;;;;;32.20;29.00;;;20.20;99.90;;;;;;5043205;28;48142;-76
2022/08/17 08:58:34;;;;;;;31.92;28.48;;;20.30;99.90;;;;;;5052518;28;38031;-75
2022/08/17 09:01:07;;;;;;;30.35;27.02;;;20.50;99.90;;;;;;5053307;28;38358;-75
2022/08/17 09:04:03;;;;;;;32.20;28.40;;;20.40;99.90;;;;;;5047812;27;47706;-76
2022/08/17 09:06:50;;;;;;;33.75;30.15;;;20.40;99.90;;;;;;5034047;28;47092;-76
2022/08/17 09:09:26;;;;;;;29.02;26.05;;;20.40;99.90;;;;;;5046331;27;37640;-75
2022/08/17 09:12:04;;;;;;;31.90;28.58;;;20.50;99.90;;;;;;5078393;27;37454;-76
2022/08/17 09:14:55;;;;;;;31.70;28.25;;;20.50;99.90;;;;;;5050451;27;48432;-76
2022/08/17 09:17:28;;;;;;;28.95;26.25;;;20.50;99.90;;;;;;5045286;28;39664;-75
2022/08/17 09:20:02;;;;;;;31.30;28.00;;;20.40;99.90;;;;;;5049635;27;38851;-76
2022/08/17 09:22:41;;;;;;;27.45;23.95;;;20.40;99.90;;;;;;5053722;27;49598;-76
2022/08/17 09:25:12;;;;;;;26.10;23.40;;;20.30;99.90;;;;;;5051834;28;38616;-76
2022/08/17 09:27:41;;;;;;;26.77;24.25;;;20.30;99.90;;;;;;5049656;28;37334;-77
2022/08/17 09:30:10;;;;;;;24.65;21.50;;;20.30;99.90;;;;;;5048900;27;37167;-76
2022/08/17 09:33:03;;;;;;;26.23;23.52;;;20.30;99.90;;;;;;5049944;27;38109;-76
2022/08/17 09:35:42;;;;;;;24.75;22.25;;;20.30;99.90;;;;;;5046232;27;48446;-77
2022/08/17 09:38:46;;;;;;;24.40;22.08;;;20.30;99.90;;;;;;5048015;27;37821;-77
2022/08/17 09:41:37;;;;;;;24.83;22.40;;;20.40;99.90;;;;;;5065741;28;39238;-75
2022/08/17 09:44:26;;;;;;;17.75;16.08;;;20.40;99.90;;;;;;5047514;27;38253;-76
2022/08/17 09:47:27;;;;;;;18.15;16.38;;;20.40;99.90;;;;;;5045500;28;40983;-76
2022/08/17 09:50:30;;;;;;;18.25;16.50;;;20.50;99.90;;;;;;5044170;28;47289;-76
2022/08/17 09:52:58;;;;;;;20.17;18.27;;;20.60;99.90;;;;;;4998039;28;47125;-76
2022/08/17 09:55:35;;;;;;;16.75;15.20;;;20.60;99.90;;;;;;5034291;28;38905;-76
2022/08/17 09:58:22;;;;;;;17.83;16.13;;;20.70;99.90;;;;;;5036396;27;42549;-75
2022/08/17 10:00:58;;;;;;;18.40;16.75;;;20.70;99.90;;;;;;5033281;28;38494;-77
2022/08/17 10:03:52;;;;;;;19.15;17.15;;;20.70;99.90;;;;;;5035535;27;36919;-77
2022/08/17 10:06:24;;;;;;;15.38;13.98;;;20.70;99.90;;;;;;5030164;28;38302;-77
2022/08/17 10:09:24;;;;;;;17.60;15.90;;;20.60;99.90;;;;;;5032897;28;38054;-77
2022/08/17 10:12:19;;;;;;;16.80;14.88;;;20.60;99.90;;;;;;5029528;27;48608;-76
2022/08/17 10:15:13;;;;;;;16.92;15.32;;;20.50;99.90;;;;;;5040857;28;47077;-76
2022/08/17 10:18:11;;;;;;;16.83;15.23;;;20.40;99.90;;;;;;5053554;28;48516;-76
2022/08/17 10:20:46;;;;;;;16.52;15.13;;;20.40;99.90;;;;;;5031692;28;46735;-76
2022/08/17 10:26:19;;;;;;;18.00;16.20;;;20.60;99.90;;;;;;5035804;28;37588;-76
2022/08/17 10:29:01;;;;;;;15.25;13.95;;;20.70;99.90;;;;;;5038636;28;38255;-76
2022/08/17 10:31:41;;;;;;;14.32;13.00;;;20.70;99.90;;;;;;5033837;28;48627;-76
2022/08/17 10:34:13;;;;;;;15.00;13.60;;;20.70;99.90;;;;;;5030766;28;38364;-76
2022/08/17 10:36:45;;;;;;;;;;;20.70;99.90;;;;;;5032583;28;39230;-76
2022/08/17 10:39:29;;;;;;;14.60;13.30;;;20.70;99.90;;;;;;5032712;27;37771;-75
2022/08/17 10:41:59;;;;;;;18.10;16.50;;;20.70;99.90;;;;;;5029917;28;39015;-76
2022/08/17 10:44:34;;;;;;;16.20;14.80;;;20.70;99.90;;;;;;5030668;28;38477;-76
2022/08/17 10:47:13;;;;;;;18.13;15.82;;;20.60;99.90;;;;;;5025703;27;38175;-75
2022/08/17 10:49:46;;;;;;;19.48;17.63;;;20.60;99.90;;;;;;5031064;27;48095;-76
2022/08/17 10:52:18;;;;;;;15.63;14.32;;;20.50;99.90;;;;;;5034429;27;40272;-76
2022/08/17 10:55:05;;;;;;;;;;;20.50;99.90;;;;;;5030494;28;39169;-76
2022/08/17 10:57:34;;;;;;;20.48;18.33;;;20.50;99.90;;;;;;5030121;28;48765;-76
2022/08/17 11:00:09;;;;;;;20.30;18.63;;;20.50;99.90;;;;;;5025480;28;37283;-76
2022/08/17 11:02:40;;;;;;;22.17;20.05;;;20.60;99.90;;;;;;5031385;28;46971;-75
2022/08/17 11:05:18;;;;;;;23.75;21.45;;;20.60;99.90;;;;;;5021609;28;38616;-76
2022/08/17 11:07:52;;;;;;;21.73;19.85;;;20.60;99.90;;;;;;5038573;27;36599;-77
2022/08/17 11:10:41;;;;;;;21.80;19.90;;;20.60;99.90;;;;;;5025176;28;37116;-77
2022/08/17 11:13:26;;;;;;;24.23;19.73;;;20.60;99.90;;;;;;5025115;27;39739;-77
2022/08/17 11:16:08;;;;;;;22.45;20.52;;;20.60;99.90;;;;;;5029508;27;38825;-77
2022/08/17 11:19:22;;;;;;;20.98;18.92;;;20.50;99.90;;;;;;5025245;27;47598;-78
2022/08/17 11:22:08;;;;;;;21.55;19.55;;;20.40;99.90;;;;;;4972355;28;47175;-77
2022/08/17 11:24:38;;;;;;;18.27;16.52;;;20.30;99.90;;;;;;5044479;28;48259;-76
2022/08/17 11:27:28;;;;;;;21.20;19.20;;;20.30;99.90;;;;;;5034387;28;38937;-76
2022/08/17 11:30:19;;;;;;;21.92;20.02;;;20.30;99.90;;;;;;5032937;27;38036;-75
2022/08/17 11:32:50;;;;;;;23.48;21.20;;;20.20;99.90;;;;;;5029921;28;46846;-76
2022/08/17 11:35:19;;;;;;;23.92;21.52;;;20.10;99.90;;;;;;5030670;28;38681;-76
2022/08/17 11:37:57;;;;;;;24.88;22.25;;;20.10;99.90;;;;;;5032968;27;38121;-75
2022/08/17 11:40:34;;;;;;;24.27;21.98;;;20.00;99.90;;;;;;5030319;27;38674;-75
2022/08/17 11:43:28;;;;;;;27.23;24.52;;;19.90;99.90;;;;;;5033826;28;39170;-75
2022/08/17 11:46:01;;;;;;;27.90;25.17;;;19.90;99.90;;;;;;5030782;28;47926;-75
2022/08/17 11:51:33;;;;;;;31.10;27.80;;;19.80;99.90;;;;;;5032756;27;38271;-75
2022/08/17 11:54:06;;;;;;;29.63;26.38;;;19.80;99.90;;;;;;5034155;28;37401;-74
2022/08/17 11:56:46;;;;;;;30.80;27.58;;;19.70;99.90;;;;;;5055039;28;47362;-75
2022/08/17 11:59:38;;;;;;;29.35;26.05;;;19.70;99.90;;;;;;5040998;28;39501;-75
2022/08/17 12:02:33;;;;;;;38.20;33.17;;;19.80;99.90;;;;;;5030683;28;38581;-74
2022/08/17 12:05:00;;;;;;;34.45;30.85;;;19.80;99.90;;;;;;5029714;28;38878;-73
2022/08/17 12:07:32;;;;;;;30.38;27.00;;;19.80;99.90;;;;;;5032525;28;40926;-74
2022/08/17 12:10:01;;;;;;;32.70;29.15;;;19.80;99.90;;;;;;5012690;28;38576;-74
2022/08/17 12:12:34;;;;;;;33.08;29.77;;;19.90;99.90;;;;;;5040322;28;37433;-74
2022/08/17 12:15:04;;;;;;;33.90;29.95;;;19.80;99.90;;;;;;5033249;28;38623;-73
2022/08/17 12:17:32;;;;;;;36.47;32.35;;;19.80;99.90;;;;;;5034499;28;39028;-74
2022/08/17 12:20:22;;;;;;;33.92;29.63;;;19.80;99.90;;;;;;5034019;28;38293;-74
2022/08/17 12:23:15;;;;;;;33.92;29.95;;;19.70;99.90;;;;;;5039613;28;47279;-75
2022/08/17 12:25:55;;;;;;;34.47;29.55;;;19.80;99.90;;;;;;5055462;27;48262;-74
2022/08/17 12:28:28;;;;;;;33.78;28.45;;;19.80;99.90;;;;;;5048667;27;37797;-74
2022/08/17 12:31:26;;;;;;;35.80;31.77;;;19.80;99.90;;;;;;5045909;27;39276;-75
2022/08/17 12:33:52;;;;;;;36.55;32.47;;;19.80;99.90;;;;;;5048924;28;47196;-75
2022/08/17 12:36:26;;;;;;;35.67;29.85;;;19.80;99.90;;;;;;5052307;28;38232;-75
2022/08/17 12:39:00;;;;;;;29.30;26.25;;;19.80;99.90;;;;;;5055368;27;38959;-75
2022/08/17 12:41:41;;;;;;;32.55;29.15;;;19.80;99.90;;;;;;5056435;28;38598;-75
2022/08/17 12:44:10;;;;;;;28.67;25.80;;;19.90;99.90;;;;;;5056653;27;38810;-75
2022/08/17 12:47:00;;;;;;;34.15;30.75;;;20.00;99.90;;;;;;5056818;28;36667;-73
2022/08/17 12:49:40;;;;;;;32.75;29.30;;;20.10;99.90;;;;;;5058366;28;39928;-74
2022/08/17 12:52:18;;;;;;;34.92;31.23;;;20.10;99.90;;;;;;5054060;27;37909;-74
2022/08/17 12:55:01;;;;;;;35.50;31.80;;;20.20;99.90;;;;;;5052633;28;36480;-74
2022/08/17 12:57:38;;;;;;;32.50;29.10;;;20.30;99.90;;;;;;5052863;28;34683;-74
2022/08/17 13:00:23;;;;;;;36.75;32.90;;;20.30;99.90;;;;;;5055246;28;39820;-74
2022/08/17 13:02:57;;;;;;;34.25;30.83;;;20.40;99.90;;;;;;5045952;27;37833;-75
2022/08/17 13:05:26;;;;;;;36.50;32.80;;;20.40;99.90;;;;;;5051689;27;38429;-73
2022/08/17 13:07:55;;;;;;;34.75;31.13;;;20.40;99.90;;;;;;5054736;28;38251;-75
2022/08/17 13:10:27;;;;;;;31.45;28.30;;;20.40;99.90;;;;;;5048877;28;38650;-73
2022/08/17 13:12:53;;;;;;;32.15;28.75;;;20.50;99.90;;;;;;5046887;28;38020;-73
2022/08/17 13:15:54;;;;;;;31.13;28.13;;;20.60;99.90;;;;;;5055152;28;37618;-74
2022/08/17 13:18:39;;;;;;;33.30;28.73;;;20.60;99.90;;;;;;5047584;27;36629;-74
2022/08/17 13:21:18;;;;;;;30.80;27.58;;;20.50;99.90;;;;;;5048917;28;38073;-74
2022/08/17 13:24:04;;;;;;;33.20;29.77;;;20.60;99.90;;;;;;5048801;27;38939;-75
2022/08/17 13:26:35;;;;;;;33.10;29.67;;;20.70;99.90;;;;;;5047331;28;47087;-74
2022/08/17 13:29:19;;;;;;;29.17;26.27;;;20.80;99.90;;;;;;5051908;28;34940;-75
2022/08/17 13:31:45;;;;;;;29.67;26.55;;;20.80;99.90;;;;;;5044707;28;38036;-75
2022/08/17 13:34:17;;;;;;;28.25;25.35;;;20.70;99.90;;;;;;5048718;27;40543;-75